Time;durP1;ratioP1;P1;durP2;ratioP2;P2;SDS_P1;SDS_P2;PMS_P1;PMS_P2;Temp;Humidity;BMP_temperature;BMP_pressure;BME280_temperature;BME280_humidity;BME280_pressure;Samples;Min_cycle;Max_cycle;Signal;HPM_P1;HPM_P2
2021/01/18 00:01:36;;;;;;;9.13;5.45;;;;;;;1.26;78.39;101563.06;4993723;28;20026;-72
2021/01/18 00:04:01;;;;;;;9.40;5.95;;;;;;;1.25;77.62;101566.75;4994667;28;20040;-74
2021/01/18 00:06:27;;;;;;;12.63;5.20;;;;;;;1.25;78.03;101560.56;4992460;28;20026;-74
2021/01/18 00:08:52;;;;;;;9.00;5.30;;;;;;;1.24;77.33;101551.66;4995576;28;20061;-73
2021/01/18 00:11:19;;;;;;;8.20;4.55;;;;;;;1.25;77.97;101558.69;4974980;28;20493;-72
2021/01/18 00:13:45;;;;;;;6.43;3.90;;;;;;;1.25;77.50;101542.56;4993609;28;20026;-73
2021/01/18 00:16:14;;;;;;;11.65;5.53;;;;;;;1.25;77.24;101539.88;4991478;28;20085;-73
2021/01/18 00:18:39;;;;;;;10.25;4.53;;;;;;;1.26;76.82;101532.69;4977119;28;20100;-73
2021/01/18 00:21:05;;;;;;;9.05;3.90;;;;;;;1.26;77.41;101532.69;4987723;28;20375;-73
2021/01/18 00:23:30;;;;;;;7.65;4.03;;;;;;;1.24;76.94;101530.19;4994218;28;20034;-72
2021/01/18 00:25:56;;;;;;;7.13;4.13;;;;;;;1.24;76.37;101534.72;4993262;28;20081;-73
2021/01/18 00:28:21;;;;;;;9.80;4.53;;;;;;;1.23;76.71;101531.22;4993165;28;20038;-72
2021/01/18 00:30:46;;;;;;;7.97;3.97;;;;;;;1.23;76.42;101527.72;4994530;28;20499;-73
2021/01/18 00:33:12;;;;;;;7.90;4.20;;;;;;;1.21;75.99;101519.81;4994958;28;20080;-73
2021/01/18 00:35:37;;;;;;;11.13;5.38;;;;;;;1.19;76.19;101527.25;4993961;28;20053;-72
2021/01/18 00:38:02;;;;;;;8.25;5.00;;;;;;;1.20;75.81;101517.31;4994820;28;20026;-75
2021/01/18 00:40:28;;;;;;;11.38;5.57;;;;;;;1.19;76.28;101521.88;4976520;28;20037;-72
2021/01/18 00:42:53;;;;;;;13.90;5.35;;;;;;;1.20;76.54;101523.56;4992190;28;20476;-73
2021/01/18 00:45:19;;;;;;;11.40;5.95;;;;;;;1.20;76.42;101517.31;4992609;28;20022;-73
2021/01/18 00:47:55;;;;;;;10.77;5.38;;;;;;;1.19;76.48;101516.50;4977284;28;20024;-73
2021/01/18 00:50:21;;;;;;;16.45;6.63;;;;;;;1.19;75.94;101505.75;4989706;28;20105;-73
2021/01/18 00:52:50;;;;;;;12.20;6.45;;;;;;;1.18;76.31;101504.09;4994619;28;20026;-72
2021/01/18 00:55:17;;;;;;;13.35;6.88;;;;;;;1.18;76.16;101508.66;4993034;28;20049;-73
2021/01/18 00:57:43;;;;;;;13.77;6.28;;;;;;;1.18;76.35;101509.47;4991791;28;20023;-74
2021/01/18 01:00:29;;;;;;;11.60;6.05;;;;;;;1.16;76.10;101503.47;4992800;28;20467;-73
2021/01/18 01:02:54;;;;;;;10.80;6.03;;;;;;;1.19;76.04;101499.56;4994144;28;20133;-73
2021/01/18 01:05:29;;;;;;;12.15;5.70;;;;;;;1.19;75.67;101494.19;4992039;28;20045;-73
2021/01/18 01:07:56;;;;;;;13.25;6.65;;;;;;;1.20;76.11;101491.31;4992639;28;20026;-73
2021/01/18 01:10:32;;;;;;;12.15;6.55;;;;;;;1.19;76.57;101495.00;4990539;28;20097;-73
2021/01/18 01:13:08;;;;;;;13.65;7.10;;;;;;;1.21;75.72;101497.50;4993365;28;20033;-72
2021/01/18 01:15:33;;;;;;;15.02;7.45;;;;;;;1.21;76.09;101492.16;4975894;28;20392;-73
2021/01/18 01:17:59;;;;;;;12.77;6.03;;;;;;;1.22;76.49;101496.47;4994178;28;20045;-74
2021/01/18 01:20:24;;;;;;;16.73;9.10;;;;;;;1.24;75.99;101489.88;4971741;28;20022;-73
2021/01/18 01:22:50;;;;;;;19.63;9.52;;;;;;;1.25;76.35;101496.09;4987357;28;20026;-74
2021/01/18 01:25:16;;;;;;;24.55;10.23;;;;;;;1.25;76.99;101482.66;4993144;28;20022;-73
2021/01/18 01:27:42;;;;;;;21.92;8.82;;;;;;;1.24;76.65;101492.56;4992475;28;20043;-73
2021/01/18 01:30:09;;;;;;;21.00;10.77;;;;;;;1.23;77.13;101485.56;4991730;28;20078;-73
2021/01/18 01:32:37;;;;;;;18.85;10.02;;;;;;;1.23;77.45;101484.72;4991675;28;20049;-73
2021/01/18 01:35:03;;;;;;;25.33;11.15;;;;;;;1.23;77.40;101485.56;4992834;28;20037;-73
2021/01/18 01:37:29;;;;;;;20.38;11.10;;;;;;;1.24;77.40;101483.69;4992776;28;20483;-72
2021/01/18 01:39:54;;;;;;;21.38;11.50;;;;;;;1.24;77.12;101484.50;4986423;28;20089;-73
2021/01/18 01:42:20;;;;;;;25.80;12.20;;;;;;;1.25;77.13;101483.47;4990983;28;20053;-73
2021/01/18 01:44:45;;;;;;;27.45;14.02;;;;;;;1.24;77.74;101481.84;4975720;28;20060;-73
2021/01/18 01:47:12;;;;;;;27.98;13.25;;;;;;;1.25;77.84;101475.41;4991849;28;20023;-72
2021/01/18 01:49:37;;;;;;;29.45;15.13;;;;;;;1.26;77.85;101474.41;4976484;28;21688;-73
2021/01/18 01:52:02;;;;;;;32.03;15.95;;;;;;;1.28;77.69;101472.38;4991091;28;20035;-73
2021/01/18 01:54:28;;;;;;;33.20;16.55;;;;;;;1.29;78.18;101476.72;4976559;28;20019;-72
2021/01/18 01:56:54;;;;;;;35.33;17.80;;;;;;;1.28;78.16;101475.06;4973963;28;20556;-72
2021/01/18 01:59:20;;;;;;;33.10;16.65;;;;;;;1.29;78.37;101462.44;4991201;28;20034;-72
2021/01/18 02:01:45;;;;;;;32.65;16.65;;;;;;;1.28;78.67;101466.13;4981189;28;20057;-72
2021/01/18 02:04:10;;;;;;;38.50;19.25;;;;;;;1.26;78.83;101463.66;4969813;28;20026;-72
2021/01/18 02:06:36;;;;;;;39.30;18.88;;;;;;;1.26;79.01;101463.66;4973254;28;20464;-72
2021/01/18 02:09:01;;;;;;;40.50;16.75;;;;;;;1.26;79.50;101460.97;4992788;28;20030;-72
2021/01/18 02:11:27;;;;;;;36.15;16.98;;;;;;;1.27;79.24;101457.25;4983156;28;20022;-73
2021/01/18 02:13:55;;;;;;;39.13;17.92;;;;;;;1.26;79.30;101452.94;4992160;28;20022;-73
2021/01/18 02:16:33;;;;;;;30.60;14.98;;;;;;;1.26;79.25;101444.03;4990867;28;20031;-73
2021/01/18 02:19:08;;;;;;;30.45;13.88;;;;;;;1.25;79.44;101440.50;4975930;28;20060;-73
2021/01/18 02:21:54;;;;;;;33.08;16.75;;;;;;;1.24;79.38;101438.84;4991877;28;20018;-73
2021/01/18 02:24:35;;;;;;;30.33;14.82;;;;;;;1.24;79.33;101438.84;4993160;28;20030;-73
2021/01/18 02:27:03;;;;;;;30.88;16.30;;;;;;;1.23;79.49;101429.16;4985789;28;20176;-73
2021/01/18 02:29:40;;;;;;;28.30;13.55;;;;;;;1.21;79.03;101430.38;4991714;28;20068;-73
2021/01/18 02:32:45;;;;;;;27.40;14.88;;;;;;;1.17;79.38;101429.91;4987684;28;20030;-73
2021/01/18 02:35:32;;;;;;;30.52;15.43;;;;;;;1.16;78.91;101425.56;4968908;28;20090;-73
2021/01/18 02:38:02;;;;;;;26.90;13.20;;;;;;;1.16;78.78;101425.56;4983400;28;20037;-73
2021/01/18 02:40:46;;;;;;;29.13;15.00;;;;;;;1.16;78.70;101428.25;4990172;28;20058;-73
2021/01/18 02:43:13;;;;;;;26.15;14.68;;;;;;;1.18;78.88;101420.03;4989755;28;20025;-72
2021/01/18 02:45:39;;;;;;;23.33;13.23;;;;;;;1.17;78.89;101416.47;4972404;28;20129;-73
2021/01/18 02:48:05;;;;;;;24.90;13.55;;;;;;;1.16;78.98;101419.38;4991011;28;20030;-72
2021/01/18 02:50:30;;;;;;;25.58;12.75;;;;;;;1.15;78.64;101418.56;4990271;28;20637;-73
2021/01/18 02:52:56;;;;;;;23.35;11.95;;;;;;;1.14;78.29;101421.41;4990708;28;20034;-72
2021/01/18 02:55:21;;;;;;;20.45;11.10;;;;;;;1.13;78.41;101412.53;4990326;28;20041;-72
2021/01/18 02:57:48;;;;;;;23.45;12.00;;;;;;;1.14;77.97;101416.06;4992645;28;20037;-73
2021/01/18 03:00:15;;;;;;;28.55;13.27;;;;;;;1.14;77.80;101418.75;4990298;28;20551;-72
2021/01/18 03:03:07;;;;;;;30.20;13.98;;;;;;;1.15;77.53;101420.41;4973146;28;20038;-73
2021/01/18 03:05:50;;;;;;;27.80;14.32;;;;;;;1.17;78.27;101423.72;4978146;28;20125;-76
2021/01/18 03:08:36;;;;;;;21.17;11.25;;;;;;;1.17;78.15;101411.09;4991264;28;20069;-73
2021/01/18 03:11:14;;;;;;;25.67;12.57;;;;;;;1.18;78.16;101406.59;4974251;28;20484;-73
2021/01/18 03:14:15;;;;;;;26.10;12.82;;;;;;;1.18;77.61;101409.28;4990964;28;20072;-72
2021/01/18 03:16:43;;;;;;;26.35;13.15;;;;;;;1.18;78.31;101399.34;4990514;28;20026;-73
2021/01/18 03:19:08;;;;;;;29.05;13.75;;;;;;;1.20;78.13;101399.16;4991360;28;20488;-72
2021/01/18 03:21:34;;;;;;;23.90;13.60;;;;;;;1.23;77.97;101398.78;4990207;28;20025;-73
2021/01/18 03:23:59;;;;;;;30.05;15.15;;;;;;;1.24;78.30;101401.25;4990152;28;20073;-73
2021/01/18 03:26:25;;;;;;;27.50;13.80;;;;;;;1.24;78.21;101395.88;4991078;28;20487;-73
2021/01/18 03:28:51;;;;;;;31.02;15.20;;;;;;;1.24;77.74;101397.75;4991933;28;20033;-73
2021/01/18 03:31:17;;;;;;;25.65;13.63;;;;;;;1.24;77.93;101393.19;4991096;28;20475;-72
2021/01/18 03:33:42;;;;;;;27.98;13.27;;;;;;;1.24;78.54;101395.88;4991785;28;20030;-72
2021/01/18 03:36:07;;;;;;;23.15;12.60;;;;;;;1.22;78.14;101389.03;4990078;28;20026;-74
2021/01/18 03:38:33;;;;;;;25.38;12.35;;;;;;;1.22;78.19;101395.25;4991342;28;20380;-72
2021/01/18 03:40:58;;;;;;;23.65;12.68;;;;;;;1.21;78.06;101388.22;4988423;28;20034;-72
2021/01/18 03:43:24;;;;;;;24.70;12.73;;;;;;;1.22;78.16;101386.34;4991828;28;20042;-73
2021/01/18 03:45:49;;;;;;;23.45;13.20;;;;;;;1.20;78.34;101381.19;4989900;28;20052;-73
2021/01/18 03:48:14;;;;;;;19.67;11.55;;;;;;;1.19;78.01;101386.75;4975123;28;20066;-71
2021/01/18 03:50:40;;;;;;;24.55;13.38;;;;;;;1.19;77.96;101387.56;4989750;28;20041;-73
2021/01/18 03:53:06;;;;;;;26.60;14.30;;;;;;;1.20;78.22;101383.88;4972603;28;20034;-73
2021/01/18 03:55:32;;;;;;;24.77;13.98;;;;;;;1.20;78.00;101385.72;4973812;28;20106;-73
2021/01/18 03:57:57;;;;;;;27.33;13.73;;;;;;;1.19;77.88;101376.84;4986998;28;20030;-74
2021/01/18 04:00:27;;;;;;;27.65;14.65;;;;;;;1.20;78.28;101378.50;4991871;28;20096;-73
2021/01/18 04:02:52;;;;;;;28.50;14.57;;;;;;;1.20;77.88;101383.88;4989045;28;20121;-72
2021/01/18 04:05:19;;;;;;;23.00;11.60;;;;;;;1.20;78.22;101383.88;4991059;28;20026;-73
2021/01/18 04:07:44;;;;;;;25.05;10.73;;;;;;;1.19;77.96;101376.84;4971432;28;20317;-73
2021/01/18 04:10:12;;;;;;;22.05;13.20;;;;;;;1.19;78.36;101376.00;4973928;28;20033;-73
2021/01/18 04:12:41;;;;;;;19.10;9.10;;;;;;;1.17;77.69;101368.13;4990126;28;20038;-73
2021/01/18 04:15:07;;;;;;;16.70;10.18;;;;;;;1.17;77.99;101370.81;4992104;28;20054;-73
2021/01/18 04:17:33;;;;;;;19.50;9.38;;;;;;;1.17;78.30;101367.31;4992875;28;20053;-73
2021/01/18 04:19:58;;;;;;;17.40;8.02;;;;;;;1.12;77.30;101359.88;4995258;28;20022;-72
2021/01/18 04:22:24;;;;;;;11.48;6.70;;;;;;;1.11;77.92;101363.56;4993996;28;20038;-73
2021/01/18 04:24:49;;;;;;;11.43;6.35;;;;;;;1.07;77.12;101351.56;4995217;28;20023;-74
2021/01/18 04:27:14;;;;;;;14.90;6.78;;;;;;;1.06;76.97;101352.59;4973017;28;20039;-73
2021/01/18 04:29:40;;;;;;;13.73;7.07;;;;;;;1.06;76.72;101350.75;4993902;28;20487;-72
2021/01/18 04:32:05;;;;;;;14.68;7.45;;;;;;;1.07;77.06;101351.56;4991851;28;20026;-73
2021/01/18 04:34:31;;;;;;;13.15;7.95;;;;;;;1.05;77.21;101337.50;4994113;28;20439;-72
2021/01/18 04:36:56;;;;;;;14.57;8.23;;;;;;;1.05;76.54;101342.88;4969729;28;20428;-72
2021/01/18 04:39:22;;;;;;;12.05;6.68;;;;;;;1.03;76.51;101340.38;4994466;28;20027;-72
2021/01/18 04:41:47;;;;;;;16.27;7.28;;;;;;;1.03;76.90;101339.56;4975384;28;20038;-72
2021/01/18 04:44:16;;;;;;;18.85;8.98;;;;;;;1.06;76.90;101339.16;4976345;28;20026;-72
2021/01/18 04:46:43;;;;;;;13.65;8.45;;;;;;;1.07;77.16;101335.47;4989949;28;20022;-73
2021/01/18 04:49:09;;;;;;;18.08;9.80;;;;;;;1.09;76.56;101333.38;4987477;28;20581;-73
2021/01/18 04:51:40;;;;;;;17.25;9.02;;;;;;;1.07;76.06;101330.91;4991957;28;20101;-72
2021/01/18 04:54:10;;;;;;;14.80;6.83;;;;;;;1.08;76.86;101326.38;4988055;28;20027;-74
2021/01/18 04:57:08;;;;;;;17.48;8.90;;;;;;;1.09;76.44;101322.66;4976441;28;20027;-72
2021/01/18 04:59:49;;;;;;;16.13;8.13;;;;;;;1.08;76.54;101316.44;4994010;28;20014;-73
2021/01/18 05:02:18;;;;;;;12.37;6.83;;;;;;;1.09;76.54;101317.28;5003532;28;20038;-73
2021/01/18 05:04:46;;;;;;;15.27;8.55;;;;;;;1.11;75.86;101312.53;4990719;28;20634;-73
2021/01/18 05:07:35;;;;;;;16.23;8.80;;;;;;;1.11;75.74;101312.53;4989842;28;20088;-72
2021/01/18 05:10:07;;;;;;;12.63;7.03;;;;;;;1.10;76.21;101313.59;4973546;28;20492;-73
2021/01/18 05:12:35;;;;;;;18.85;8.73;;;;;;;1.03;75.86;101318.91;4991900;28;20038;-73
2021/01/18 05:15:06;;;;;;;16.20;7.82;;;;;;;1.01;76.12;101322.81;4985455;28;20034;-72
2021/01/18 05:17:48;;;;;;;14.88;6.78;;;;;;;0.97;76.10;101308.13;4992838;28;20022;-73
2021/01/18 05:20:14;;;;;;;8.55;4.82;;;;;;;0.96;76.11;101311.84;4970560;28;20036;-73
2021/01/18 05:22:42;;;;;;;9.93;5.78;;;;;;;0.92;76.10;101306.03;4991755;28;20154;-73
2021/01/18 05:25:08;;;;;;;11.85;6.07;;;;;;;0.94;75.98;101301.28;4991561;28;20109;-73
2021/01/18 05:27:34;;;;;;;14.85;7.78;;;;;;;0.94;75.89;101303.97;4985378;28;20177;-72
2021/01/18 05:29:59;;;;;;;13.57;7.30;;;;;;;0.93;76.22;101291.59;4992286;28;20031;-72
2021/01/18 05:32:25;;;;;;;14.45;7.13;;;;;;;0.94;76.26;101295.09;4991485;28;20061;-72
2021/01/18 05:35:13;;;;;;;14.05;6.60;;;;;;;0.95;76.01;101280.66;4974654;28;20038;-72
2021/01/18 05:37:55;;;;;;;17.08;7.38;;;;;;;0.98;76.11;101286.47;4991524;28;20033;-72
2021/01/18 05:40:21;;;;;;;11.57;5.97;;;;;;;1.02;76.07;101289.56;4988472;28;20038;-73
2021/01/18 05:42:46;;;;;;;10.68;6.00;;;;;;;1.04;75.53;101279.47;4991153;28;20092;-72
2021/01/18 05:45:12;;;;;;;9.45;5.22;;;;;;;1.06;75.90;101272.03;4992295;28;20480;-72
2021/01/18 05:47:42;;;;;;;12.48;5.70;;;;;;;1.05;75.58;101275.75;4972805;28;20034;-73
2021/01/18 05:50:08;;;;;;;12.98;6.47;;;;;;;1.07;75.02;101279.06;4966220;28;20037;-73
2021/01/18 05:52:33;;;;;;;17.40;9.43;;;;;;;1.10;76.15;101276.00;4973138;28;20065;-72
2021/01/18 05:55:18;;;;;;;18.83;8.85;;;;;;;1.10;75.91;101273.31;4992360;28;20034;-73
2021/01/18 05:57:48;;;;;;;18.38;9.63;;;;;;;1.10;76.00;101273.31;4990827;28;20499;-73
2021/01/18 06:00:22;;;;;;;18.27;9.65;;;;;;;1.09;76.29;101274.31;4991889;28;20026;-73
2021/01/18 06:02:47;;;;;;;19.63;9.30;;;;;;;1.08;76.48;101272.66;4991466;28;20113;-73
2021/01/18 06:05:13;;;;;;;18.10;8.70;;;;;;;1.07;77.07;101271.84;4970954;28;20049;-73
2021/01/18 06:07:39;;;;;;;16.80;9.10;;;;;;;1.05;77.17;101273.06;4973937;28;20030;-74
2021/01/18 06:10:05;;;;;;;23.30;9.10;;;;;;;1.05;77.50;101273.06;4981718;28;20365;-74
2021/01/18 06:12:31;;;;;;;18.77;7.93;;;;;;;1.05;77.44;101265.84;4991303;28;20045;-73
2021/01/18 06:15:07;;;;;;;15.38;7.63;;;;;;;1.02;77.78;101274.28;4990670;28;20427;-73
2021/01/18 06:17:32;;;;;;;16.17;7.82;;;;;;;1.02;77.49;101263.56;4990791;28;20036;-73
2021/01/18 06:20:00;;;;;;;14.63;7.60;;;;;;;1.00;77.42;101267.47;4991743;28;20034;-73
2021/01/18 06:22:29;;;;;;;13.70;6.65;;;;;;;0.98;78.22;101261.44;4986278;28;20062;-73
2021/01/18 06:24:55;;;;;;;17.25;9.35;;;;;;;0.94;78.15;101257.53;4991966;28;20030;-74
2021/01/18 06:27:33;;;;;;;13.85;8.32;;;;;;;0.94;78.68;101265.56;4991663;28;20416;-72
2021/01/18 06:29:58;;;;;;;20.27;9.35;;;;;;;0.92;78.99;101267.63;4971886;28;20034;-73
2021/01/18 06:32:31;;;;;;;20.02;9.27;;;;;;;0.88;79.29;101267.19;4988772;28;20030;-73
2021/01/18 06:35:00;;;;;;;19.48;8.90;;;;;;;0.87;79.73;101261.00;4991936;28;20065;-74
2021/01/18 06:37:30;;;;;;;17.60;8.30;;;;;;;0.87;80.22;101258.31;4989430;28;20030;-73
2021/01/18 06:39:59;;;;;;;15.38;6.40;;;;;;;0.91;79.58;101257.94;4991114;28;20105;-73
2021/01/18 06:42:24;;;;;;;15.57;8.90;;;;;;;0.89;80.51;101253.56;4991537;28;20057;-74
2021/01/18 06:44:50;;;;;;;15.80;9.18;;;;;;;0.91;80.13;101244.50;4987335;28;21538;-74
2021/01/18 06:47:32;;;;;;;14.65;7.72;;;;;;;0.94;80.75;101246.78;4988642;28;20038;-73
2021/01/18 06:50:04;;;;;;;12.15;6.90;;;;;;;0.96;81.03;101245.56;4990376;28;20441;-74
2021/01/18 06:52:31;;;;;;;18.27;8.40;;;;;;;0.97;80.87;101247.22;4988131;28;20551;-74
2021/01/18 06:54:58;;;;;;;17.95;8.57;;;;;;;0.98;81.19;101245.34;4986047;28;20330;-74
2021/01/18 06:57:45;;;;;;;18.63;8.40;;;;;;;0.99;81.18;101237.09;4988658;28;20073;-74
2021/01/18 07:00:17;;;;;;;13.98;6.68;;;;;;;1.04;81.36;101236.53;4986610;28;20014;-75
2021/01/18 07:03:30;;;;;;;21.67;8.45;;;;;;;1.07;81.73;101226.19;4971645;28;20030;-72
2021/01/18 07:05:55;;;;;;;12.43;6.30;;;;;;;1.11;81.50;101235.50;4977933;28;20038;-73
2021/01/18 07:08:21;;;;;;;11.15;5.75;;;;;;;1.11;81.44;101230.13;4968753;28;20365;-73
2021/01/18 07:10:48;;;;;;;16.25;7.55;;;;;;;1.11;81.27;101223.94;4988165;28;20018;-73
2021/01/18 07:13:13;;;;;;;17.13;9.15;;;;;;;1.13;82.12;101227.25;4986290;28;20109;-74
2021/01/18 07:15:40;;;;;;;23.38;10.20;;;;;;;1.15;81.94;101219.84;4984254;28;20104;-73
2021/01/18 07:18:07;;;;;;;18.58;7.25;;;;;;;1.17;81.77;101224.97;4988494;28;20443;-74
2021/01/18 07:20:38;;;;;;;19.33;10.07;;;;;;;1.19;81.93;101231.00;4981247;28;20556;-74
2021/01/18 07:23:15;;;;;;;16.65;7.85;;;;;;;1.21;82.81;101229.75;4990638;28;20423;-74
2021/01/18 07:25:47;;;;;;;18.20;7.30;;;;;;;1.22;82.35;101227.91;4983390;28;20026;-74
2021/01/18 07:28:14;;;;;;;20.63;9.35;;;;;;;1.23;82.42;101232.25;4989749;28;20064;-73
2021/01/18 07:30:40;;;;;;;22.92;11.00;;;;;;;1.24;82.38;101234.72;4970799;28;20564;-73
2021/01/18 07:33:06;;;;;;;22.02;9.15;;;;;;;1.26;82.76;101224.63;4981393;28;20113;-72
2021/01/18 07:35:31;;;;;;;16.13;7.35;;;;;;;1.27;82.60;101223.56;4982270;28;20105;-72
2021/01/18 07:38:16;;;;;;;20.40;7.53;;;;;;;1.26;82.47;101227.31;4969710;28;20041;-72
2021/01/18 07:40:41;;;;;;;16.17;7.35;;;;;;;1.26;82.91;101216.56;5004387;28;20029;-71
2021/01/18 07:43:07;;;;;;;21.27;9.18;;;;;;;1.28;82.94;101230.63;4989070;28;20121;-72
2021/01/18 07:45:32;;;;;;;24.25;9.45;;;;;;;1.27;82.97;101218.19;4990783;28;20033;-72
2021/01/18 07:48:00;;;;;;;19.92;9.43;;;;;;;1.31;83.11;101219.47;4989867;28;20030;-72
2021/01/18 07:50:38;;;;;;;15.20;6.82;;;;;;;1.31;83.72;101211.41;4991359;28;20490;-71
2021/01/18 07:53:11;;;;;;;19.45;8.82;;;;;;;1.30;83.42;101207.06;4991371;28;20038;-72
2021/01/18 07:55:39;;;;;;;26.45;11.32;;;;;;;1.28;83.57;101222.56;5002641;28;20061;-72
2021/01/18 07:58:19;;;;;;;16.17;7.57;;;;;;;1.29;83.95;101210.78;4974657;28;20114;-71
2021/01/18 08:00:45;;;;;;;25.17;11.15;;;;;;;1.30;84.10;101207.06;4993624;28;20027;-71
2021/01/18 08:03:11;;;;;;;21.83;8.15;;;;;;;1.30;83.62;101206.22;4991883;28;20480;-71
2021/01/18 08:05:37;;;;;;;20.90;9.55;;;;;;;1.29;83.70;101216.16;4995423;28;20369;-73
2021/01/18 08:08:07;;;;;;;30.77;10.77;;;;;;;1.30;84.37;101204.38;4993209;28;20460;-73
2021/01/18 08:10:51;;;;;;;25.00;10.18;;;;;;;1.30;84.40;101207.06;4995571;28;20023;-72
2021/01/18 08:13:44;;;;;;;23.50;11.73;;;;;;;1.31;84.41;101203.34;4992877;28;20030;-72
2021/01/18 08:16:15;;;;;;;25.65;12.70;;;;;;;1.30;84.65;101196.31;4990628;28;20097;-72
2021/01/18 08:18:51;;;;;;;26.92;10.80;;;;;;;1.29;84.72;101205.41;4992635;28;20025;-73
2021/01/18 08:21:34;;;;;;;27.33;10.98;;;;;;;1.29;85.16;101191.97;4992209;28;20026;-72
2021/01/18 08:24:01;;;;;;;25.02;11.23;;;;;;;1.31;84.92;101192.63;4992105;28;20034;-74
2021/01/18 08:26:26;;;;;;;29.77;13.43;;;;;;;1.32;84.97;101183.50;4977342;28;20045;-74
2021/01/18 08:28:51;;;;;;;26.90;13.27;;;;;;;1.33;84.75;101190.53;4992059;28;20476;-73
2021/01/18 08:31:17;;;;;;;19.83;8.18;;;;;;;1.34;85.14;101186.00;4993793;28;20026;-72
2021/01/18 08:33:42;;;;;;;27.88;9.85;;;;;;;1.35;85.19;101181.47;4993251;28;20371;-72
2021/01/18 08:36:08;;;;;;;29.92;14.52;;;;;;;1.34;85.03;101180.63;4993435;28;20126;-72
2021/01/18 08:38:33;;;;;;;27.90;12.95;;;;;;;1.32;85.38;101172.75;4993150;28;20105;-72
2021/01/18 08:41:01;;;;;;;32.83;15.80;;;;;;;1.33;85.65;101181.66;4992606;28;20109;-73
2021/01/18 08:43:44;;;;;;;32.90;13.32;;;;;;;1.33;85.02;101177.09;4993646;28;20431;-72
2021/01/18 08:46:29;;;;;;;;;;;;;;;1.33;85.62;101166.34;4993852;28;20480;-72
2021/01/18 08:49:28;;;;;;;30.85;13.77;;;;;;;1.32;85.38;101172.75;4990359;28;19917;-72
2021/01/18 08:51:53;;;;;;;39.17;16.48;;;;;;;1.33;85.33;101163.66;4992748;28;20500;-72
2021/01/18 08:54:32;;;;;;;34.58;15.15;;;;;;;1.35;85.85;101171.53;4975723;28;20053;-74
2021/01/18 08:57:25;;;;;;;30.77;13.23;;;;;;;1.36;85.95;101164.31;4994935;28;20029;-73
2021/01/18 09:00:03;;;;;;;37.15;16.65;;;;;;;1.36;85.84;101159.75;4989344;28;20124;-73
2021/01/18 09:02:29;;;;;;;31.38;13.57;;;;;;;1.38;86.19;101176.50;4977011;28;20499;-72
2021/01/18 09:04:55;;;;;;;37.97;18.98;;;;;;;1.40;86.01;101168.25;4976322;28;20194;-73
2021/01/18 09:07:20;;;;;;;31.60;14.05;;;;;;;1.41;86.20;101165.34;4994813;28;20194;-72
2021/01/18 09:09:45;;;;;;;34.13;16.08;;;;;;;1.45;86.06;101168.47;4992304;28;20100;-73
2021/01/18 09:12:11;;;;;;;38.08;16.33;;;;;;;1.46;86.29;101156.69;4994216;28;20049;-72
2021/01/18 09:14:36;;;;;;;32.45;14.50;;;;;;;1.48;86.38;101151.94;4975890;28;20029;-72
2021/01/18 09:17:08;;;;;;;33.88;14.35;;;;;;;1.50;87.00;101163.28;4993106;28;20511;-73
2021/01/18 09:19:34;;;;;;;;;;;;;;;1.52;86.32;101155.84;4991195;28;20034;-72
2021/01/18 09:21:59;;;;;;;32.30;12.18;;;;;;;1.52;86.93;101155.84;4991998;28;19913;-73
2021/01/18 09:24:25;;;;;;;35.28;14.27;;;;;;;1.52;86.78;101166.59;4975026;28;20496;-73
2021/01/18 09:26:50;;;;;;;51.35;20.13;;;;;;;1.52;87.36;101161.22;4975075;28;20046;-72
2021/01/18 09:29:21;;;;;;;35.78;15.90;;;;;;;1.53;86.58;101152.97;4969103;28;20026;-72
2021/01/18 09:31:46;;;;;;;35.45;14.63;;;;;;;1.53;87.29;101152.97;4977033;28;20442;-71
2021/01/18 09:34:11;;;;;;;44.17;18.15;;;;;;;1.55;87.42;101158.13;4978939;28;20117;-72
2021/01/18 09:36:39;;;;;;;40.17;17.85;;;;;;;1.58;87.20;101155.03;4986563;28;20026;-72
2021/01/18 09:39:05;;;;;;;42.88;17.00;;;;;;;1.57;87.64;101153.38;5003201;28;20105;-72
2021/01/18 09:41:32;;;;;;;28.80;12.20;;;;;;;1.58;87.61;101154.19;4992023;28;20076;-71
2021/01/18 09:43:57;;;;;;;38.28;15.80;;;;;;;1.56;86.88;101151.75;4988971;28;20061;-73
2021/01/18 09:46:22;;;;;;;48.10;20.67;;;;;;;1.58;87.45;101149.66;4976077;28;20066;-72
2021/01/18 09:48:49;;;;;;;52.90;23.75;;;;;;;1.60;86.96;101152.16;4974326;28;20030;-72
2021/01/18 09:51:14;;;;;;;26.70;12.93;;;;;;;1.65;87.60;101146.97;4993682;28;20026;-73
2021/01/18 09:53:40;;;;;;;37.30;16.17;;;;;;;1.64;87.44;101143.47;4976135;28;20030;-71
2021/01/18 09:56:09;;;;;;;35.67;17.55;;;;;;;1.67;88.03;101147.63;4979290;28;20608;-73
2021/01/18 09:58:58;;;;;;;52.30;22.45;;;;;;;1.68;87.79;101144.69;4972288;28;20046;-72
2021/01/18 10:01:25;;;;;;;45.28;20.38;;;;;;;1.70;87.60;101136.44;4986367;28;20026;-72
2021/01/18 10:03:55;;;;;;;50.72;20.60;;;;;;;1.70;87.50;101129.22;4992022;28;20116;-72
2021/01/18 10:06:28;;;;;;;46.80;20.38;;;;;;;1.73;87.55;101128.78;4989810;28;20396;-72
2021/01/18 10:09:07;;;;;;;37.38;15.85;;;;;;;1.76;87.78;101125.69;4991140;28;20026;-74
2021/01/18 10:11:42;;;;;;;38.72;15.38;;;;;;;1.78;87.43;101123.63;4991661;28;20376;-73
2021/01/18 10:14:24;;;;;;;31.70;14.77;;;;;;;1.80;87.78;101126.13;4989814;28;20414;-72
2021/01/18 10:17:02;;;;;;;35.97;15.67;;;;;;;1.83;87.74;101119.47;4987260;28;20069;-73
2021/01/18 10:19:28;;;;;;;40.22;15.65;;;;;;;1.82;87.55;101109.75;4985652;28;20350;-73
2021/01/18 10:21:53;;;;;;;41.83;17.98;;;;;;;1.84;87.38;101107.69;4984645;28;20444;-73
2021/01/18 10:24:29;;;;;;;38.97;16.27;;;;;;;1.86;87.44;101106.47;4988483;28;20533;-73
2021/01/18 10:27:12;;;;;;;39.38;15.88;;;;;;;1.88;87.54;101106.22;4979111;28;20081;-73
2021/01/18 10:29:38;;;;;;;40.58;17.02;;;;;;;1.88;87.17;101104.41;4975255;28;20077;-73
2021/01/18 10:32:04;;;;;;;42.95;18.58;;;;;;;1.88;87.68;101100.84;4990267;28;20022;-73
2021/01/18 10:34:31;;;;;;;50.30;19.60;;;;;;;1.90;87.50;101098.78;4988421;28;20430;-74
2021/01/18 10:36:57;;;;;;;54.70;19.48;;;;;;;1.91;87.47;101095.06;4987224;28;20022;-72
2021/01/18 10:39:33;;;;;;;41.60;17.42;;;;;;;1.91;87.21;101087.00;4982424;28;20030;-71
2021/01/18 10:42:24;;;;;;;46.17;16.65;;;;;;;1.92;87.56;101083.28;4987290;28;20033;-72
2021/01/18 10:44:54;;;;;;;39.45;14.35;;;;;;;1.93;88.03;101082.25;4970557;28;20129;-72
2021/01/18 10:47:26;;;;;;;43.75;16.33;;;;;;;1.94;87.77;101070.47;4989252;28;20023;-72
2021/01/18 10:49:57;;;;;;;33.60;14.20;;;;;;;1.95;87.36;101061.34;4973432;28;20141;-72
2021/01/18 10:52:39;;;;;;;37.22;15.98;;;;;;;1.94;87.19;101057.03;4970962;28;20027;-73
2021/01/18 10:55:05;;;;;;;37.22;15.93;;;;;;;1.96;87.17;101068.38;4989850;28;20129;-73
2021/01/18 10:57:40;;;;;;;42.08;17.35;;;;;;;1.95;87.82;101059.50;4972228;28;20219;-73
2021/01/18 11:00:10;;;;;;;36.67;14.43;;;;;;;1.93;87.68;101053.50;4981107;28;20121;-73
2021/01/18 11:02:36;;;;;;;40.83;15.57;;;;;;;1.95;87.94;101053.28;4986640;28;20034;-72
2021/01/18 11:05:02;;;;;;;31.75;12.70;;;;;;;1.95;88.09;101050.59;4989149;28;20072;-72
2021/01/18 11:07:27;;;;;;;45.67;18.00;;;;;;;1.98;87.70;101058.25;4986932;28;20022;-73
2021/01/18 11:09:59;;;;;;;40.10;16.83;;;;;;;1.99;87.75;101055.34;4974734;28;20034;-73
2021/01/18 11:12:38;;;;;;;33.78;15.63;;;;;;;1.99;87.55;101041.06;4989139;28;20030;-73
2021/01/18 11:15:11;;;;;;;52.22;14.30;;;;;;;1.99;87.60;101054.50;4989738;28;20058;-73
2021/01/18 11:17:37;;;;;;;56.25;22.73;;;;;;;1.99;88.04;101038.38;4987793;28;20033;-73
2021/01/18 11:20:06;;;;;;;51.42;18.70;;;;;;;2.00;87.53;101040.03;4985631;28;20026;-73
2021/01/18 11:22:31;;;;;;;57.83;21.90;;;;;;;2.00;88.18;101030.09;4986457;28;20044;-71
2021/01/18 11:24:56;;;;;;;59.13;22.40;;;;;;;1.98;87.91;101036.72;4986279;28;20477;-71
2021/01/18 11:27:22;;;;;;;59.97;23.08;;;;;;;1.99;87.98;101028.47;4964270;28;639075;-72
2021/01/18 11:29:47;;;;;;;57.42;22.10;;;;;;;2.00;88.37;101040.03;4985758;28;20058;-71
2021/01/18 11:32:13;;;;;;;65.68;20.92;;;;;;;2.01;87.82;101025.56;4988450;28;20076;-72
2021/01/18 11:34:38;;;;;;;78.25;26.60;;;;;;;2.02;88.39;101021.84;4990456;28;20053;-71